sensor_id;sensor_type;location;lat;lon;timestamp;P1;durP1;ratioP1;P2;durP2;ratioP2
38023;SDS011;23834;48.080;11.682;2023-11-19T00:00:24;1.43;;;1.33;;
38023;SDS011;23834;48.080;11.682;2023-11-19T00:02:50;1.30;;;1.30;;
38023;SDS011;23834;48.080;11.682;2023-11-19T00:05:15;1.10;;;1.10;;
38023;SDS011;23834;48.080;11.682;2023-11-19T00:07:40;1.23;;;1.13;;
38023;SDS011;23834;48.080;11.682;2023-11-19T00:10:09;0.93;;;0.93;;
38023;SDS011;23834;48.080;11.682;2023-11-19T00:12:36;1.10;;;1.00;;
38023;SDS011;23834;48.080;11.682;2023-11-19T00:15:01;1.03;;;1.03;;
38023;SDS011;23834;48.080;11.682;2023-11-19T00:17:27;1.03;;;1.03;;
38023;SDS011;23834;48.080;11.682;2023-11-19T00:19:52;1.07;;;1.00;;
38023;SDS011;23834;48.080;11.682;2023-11-19T00:22:17;1.00;;;1.00;;
38023;SDS011;23834;48.080;11.682;2023-11-19T00:24:42;1.63;;;1.43;;
38023;SDS011;23834;48.080;11.682;2023-11-19T00:27:07;1.10;;;1.10;;
38023;SDS011;23834;48.080;11.682;2023-11-19T00:29:33;0.90;;;0.90;;
38023;SDS011;23834;48.080;11.682;2023-11-19T00:31:58;0.77;;;0.77;;
38023;SDS011;23834;48.080;11.682;2023-11-19T00:34:23;1.30;;;1.20;;
38023;SDS011;23834;48.080;11.682;2023-11-19T00:36:48;1.10;;;1.00;;
38023;SDS011;23834;48.080;11.682;2023-11-19T00:39:14;2.10;;;1.00;;
38023;SDS011;23834;48.080;11.682;2023-11-19T00:41:40;0.90;;;0.90;;
38023;SDS011;23834;48.080;11.682;2023-11-19T00:44:05;0.77;;;0.77;;
38023;SDS011;23834;48.080;11.682;2023-11-19T00:46:30;0.90;;;0.90;;
38023;SDS011;23834;48.080;11.682;2023-11-19T00:48:56;1.00;;;1.00;;
38023;SDS011;23834;48.080;11.682;2023-11-19T00:51:23;0.90;;;0.90;;
38023;SDS011;23834;48.080;11.682;2023-11-19T00:53:49;0.83;;;0.80;;
38023;SDS011;23834;48.080;11.682;2023-11-19T00:56:14;1.07;;;0.87;;
38023;SDS011;23834;48.080;11.682;2023-11-19T00:58:39;0.93;;;0.80;;
38023;SDS011;23834;48.080;11.682;2023-11-19T01:01:04;1.20;;;1.10;;
38023;SDS011;23834;48.080;11.682;2023-11-19T01:03:30;0.83;;;0.83;;
38023;SDS011;23834;48.080;11.682;2023-11-19T01:05:55;1.17;;;1.07;;
38023;SDS011;23834;48.080;11.682;2023-11-19T01:08:20;1.00;;;1.00;;
38023;SDS011;23834;48.080;11.682;2023-11-19T01:10:45;0.90;;;0.90;;
38023;SDS011;23834;48.080;11.682;2023-11-19T01:13:11;1.10;;;1.00;;
38023;SDS011;23834;48.080;11.682;2023-11-19T01:15:36;0.93;;;0.83;;
38023;SDS011;23834;48.080;11.682;2023-11-19T01:18:01;1.10;;;1.00;;
38023;SDS011;23834;48.080;11.682;2023-11-19T01:20:29;0.70;;;0.70;;
38023;SDS011;23834;48.080;11.682;2023-11-19T01:22:55;0.87;;;0.87;;
38023;SDS011;23834;48.080;11.682;2023-11-19T01:25:20;0.63;;;0.60;;
38023;SDS011;23834;48.080;11.682;2023-11-19T01:27:45;0.70;;;0.67;;
38023;SDS011;23834;48.080;11.682;2023-11-19T01:30:10;1.00;;;0.90;;
38023;SDS011;23834;48.080;11.682;2023-11-19T01:32:37;0.80;;;0.80;;
38023;SDS011;23834;48.080;11.682;2023-11-19T01:35:09;0.80;;;0.80;;
38023;SDS011;23834;48.080;11.682;2023-11-19T01:37:34;0.77;;;0.77;;
38023;SDS011;23834;48.080;11.682;2023-11-19T01:40:00;0.80;;;0.80;;
38023;SDS011;23834;48.080;11.682;2023-11-19T01:42:26;0.90;;;0.90;;
38023;SDS011;23834;48.080;11.682;2023-11-19T01:44:58;0.90;;;0.80;;
38023;SDS011;23834;48.080;11.682;2023-11-19T01:47:23;0.70;;;0.70;;
38023;SDS011;23834;48.080;11.682;2023-11-19T01:49:49;0.80;;;0.80;;
38023;SDS011;23834;48.080;11.682;2023-11-19T01:52:15;0.90;;;0.90;;
38023;SDS011;23834;48.080;11.682;2023-11-19T01:54:40;1.20;;;0.80;;
38023;SDS011;23834;48.080;11.682;2023-11-19T01:57:05;0.53;;;0.53;;
38023;SDS011;23834;48.080;11.682;2023-11-19T01:59:31;0.70;;;0.70;;
38023;SDS011;23834;48.080;11.682;2023-11-19T02:01:56;0.90;;;0.90;;
38023;SDS011;23834;48.080;11.682;2023-11-19T02:04:22;0.87;;;0.87;;
38023;SDS011;23834;48.080;11.682;2023-11-19T02:06:47;0.63;;;0.63;;
38023;SDS011;23834;48.080;11.682;2023-11-19T02:09:13;0.70;;;0.70;;
38023;SDS011;23834;48.080;11.682;2023-11-19T02:11:41;0.70;;;0.70;;
38023;SDS011;23834;48.080;11.682;2023-11-19T02:14:06;0.70;;;0.70;;
38023;SDS011;23834;48.080;11.682;2023-11-19T02:16:32;0.80;;;0.70;;
38023;SDS011;23834;48.080;11.682;2023-11-19T02:18:57;0.63;;;0.63;;
38023;SDS011;23834;48.080;11.682;2023-11-19T02:21:22;0.80;;;0.70;;
38023;SDS011;23834;48.080;11.682;2023-11-19T02:23:47;0.50;;;0.50;;
38023;SDS011;23834;48.080;11.682;2023-11-19T02:28:39;0.60;;;0.60;;
38023;SDS011;23834;48.080;11.682;2023-11-19T02:31:05;0.70;;;0.60;;
38023;SDS011;23834;48.080;11.682;2023-11-19T02:33:30;0.80;;;0.80;;
38023;SDS011;23834;48.080;11.682;2023-11-19T02:35:55;0.50;;;0.50;;
38023;SDS011;23834;48.080;11.682;2023-11-19T02:38:21;0.60;;;0.60;;
38023;SDS011;23834;48.080;11.682;2023-11-19T02:40:46;0.90;;;0.60;;
38023;SDS011;23834;48.080;11.682;2023-11-19T02:43:12;0.80;;;0.80;;
38023;SDS011;23834;48.080;11.682;2023-11-19T02:45:38;0.83;;;0.70;;
38023;SDS011;23834;48.080;11.682;2023-11-19T02:48:03;0.70;;;0.70;;
38023;SDS011;23834;48.080;11.682;2023-11-19T02:50:31;0.63;;;0.60;;
38023;SDS011;23834;48.080;11.682;2023-11-19T02:52:56;0.70;;;0.70;;
38023;SDS011;23834;48.080;11.682;2023-11-19T02:55:21;0.53;;;0.50;;
38023;SDS011;23834;48.080;11.682;2023-11-19T02:57:48;0.60;;;0.60;;
38023;SDS011;23834;48.080;11.682;2023-11-19T03:00:21;0.53;;;0.50;;
38023;SDS011;23834;48.080;11.682;2023-11-19T03:02:56;0.70;;;0.63;;
38023;SDS011;23834;48.080;11.682;2023-11-19T03:05:24;0.67;;;0.67;;
38023;SDS011;23834;48.080;11.682;2023-11-19T03:07:50;0.73;;;0.73;;
38023;SDS011;23834;48.080;11.682;2023-11-19T03:10:15;0.60;;;0.60;;
38023;SDS011;23834;48.080;11.682;2023-11-19T03:12:41;0.77;;;0.60;;
38023;SDS011;23834;48.080;11.682;2023-11-19T03:15:06;0.60;;;0.50;;
38023;SDS011;23834;48.080;11.682;2023-11-19T03:17:32;0.50;;;0.40;;
38023;SDS011;23834;48.080;11.682;2023-11-19T03:19:57;0.60;;;0.60;;
38023;SDS011;23834;48.080;11.682;2023-11-19T03:22:22;0.60;;;0.53;;
38023;SDS011;23834;48.080;11.682;2023-11-19T03:24:50;0.60;;;0.60;;
38023;SDS011;23834;48.080;11.682;2023-11-19T03:27:15;0.90;;;0.60;;
38023;SDS011;23834;48.080;11.682;2023-11-19T03:29:40;0.53;;;0.53;;
38023;SDS011;23834;48.080;11.682;2023-11-19T03:32:05;1.00;;;0.60;;
38023;SDS011;23834;48.080;11.682;2023-11-19T03:34:31;0.50;;;0.50;;
38023;SDS011;23834;48.080;11.682;2023-11-19T03:36:56;0.70;;;0.70;;
38023;SDS011;23834;48.080;11.682;2023-11-19T03:39:22;0.50;;;0.47;;
38023;SDS011;23834;48.080;11.682;2023-11-19T03:41:49;1.10;;;0.60;;
38023;SDS011;23834;48.080;11.682;2023-11-19T03:44:15;0.60;;;0.53;;
38023;SDS011;23834;48.080;11.682;2023-11-19T03:46:40;0.40;;;0.40;;
38023;SDS011;23834;48.080;11.682;2023-11-19T03:49:05;0.60;;;0.50;;
38023;SDS011;23834;48.080;11.682;2023-11-19T03:51:32;0.50;;;0.50;;
38023;SDS011;23834;48.080;11.682;2023-11-19T03:53:57;0.70;;;0.50;;
38023;SDS011;23834;48.080;11.682;2023-11-19T03:56:23;0.50;;;0.50;;
38023;SDS011;23834;48.080;11.682;2023-11-19T03:58:48;0.80;;;0.60;;
38023;SDS011;23834;48.080;11.682;2023-11-19T04:01:13;0.63;;;0.60;;
38023;SDS011;23834;48.080;11.682;2023-11-19T04:03:38;0.50;;;0.50;;
38023;SDS011;23834;48.080;11.682;2023-11-19T04:06:04;0.50;;;0.50;;
38023;SDS011;23834;48.080;11.682;2023-11-19T04:08:29;1.00;;;0.50;;
38023;SDS011;23834;48.080;11.682;2023-11-19T04:10:54;0.53;;;0.40;;
38023;SDS011;23834;48.080;11.682;2023-11-19T04:13:20;0.70;;;0.50;;
38023;SDS011;23834;48.080;11.682;2023-11-19T04:15:45;0.50;;;0.50;;
38023;SDS011;23834;48.080;11.682;2023-11-19T04:18:10;0.50;;;0.40;;
38023;SDS011;23834;48.080;11.682;2023-11-19T04:20:35;0.40;;;0.40;;
38023;SDS011;23834;48.080;11.682;2023-11-19T04:23:01;0.50;;;0.43;;
38023;SDS011;23834;48.080;11.682;2023-11-19T04:25:26;0.70;;;0.50;;
38023;SDS011;23834;48.080;11.682;2023-11-19T04:27:52;0.50;;;0.50;;
38023;SDS011;23834;48.080;11.682;2023-11-19T04:30:17;0.70;;;0.60;;
38023;SDS011;23834;48.080;11.682;2023-11-19T04:32:43;1.00;;;0.50;;
38023;SDS011;23834;48.080;11.682;2023-11-19T04:35:08;0.50;;;0.40;;
38023;SDS011;23834;48.080;11.682;2023-11-19T04:37:34;0.57;;;0.50;;
38023;SDS011;23834;48.080;11.682;2023-11-19T04:39:59;1.23;;;0.43;;
38023;SDS011;23834;48.080;11.682;2023-11-19T04:42:24;0.50;;;0.40;;
38023;SDS011;23834;48.080;11.682;2023-11-19T04:44:50;0.50;;;0.50;;
38023;SDS011;23834;48.080;11.682;2023-11-19T04:47:15;0.60;;;0.57;;
38023;SDS011;23834;48.080;11.682;2023-11-19T04:49:40;0.50;;;0.40;;
38023;SDS011;23834;48.080;11.682;2023-11-19T04:52:07;0.70;;;0.40;;
38023;SDS011;23834;48.080;11.682;2023-11-19T04:54:33;0.40;;;0.40;;
38023;SDS011;23834;48.080;11.682;2023-11-19T04:56:58;0.60;;;0.60;;
38023;SDS011;23834;48.080;11.682;2023-11-19T04:59:23;0.60;;;0.40;;
38023;SDS011;23834;48.080;11.682;2023-11-19T05:01:48;0.50;;;0.40;;
38023;SDS011;23834;48.080;11.682;2023-11-19T05:04:13;0.50;;;0.40;;
38023;SDS011;23834;48.080;11.682;2023-11-19T05:06:39;0.50;;;0.40;;
38023;SDS011;23834;48.080;11.682;2023-11-19T05:09:04;0.60;;;0.60;;
38023;SDS011;23834;48.080;11.682;2023-11-19T05:11:38;0.57;;;0.43;;
38023;SDS011;23834;48.080;11.682;2023-11-19T05:14:04;0.50;;;0.50;;
38023;SDS011;23834;48.080;11.682;2023-11-19T05:16:29;0.53;;;0.40;;
38023;SDS011;23834;48.080;11.682;2023-11-19T05:18:54;0.53;;;0.40;;
38023;SDS011;23834;48.080;11.682;2023-11-19T05:21:19;0.60;;;0.53;;
38023;SDS011;23834;48.080;11.682;2023-11-19T05:23:45;0.60;;;0.40;;
38023;SDS011;23834;48.080;11.682;2023-11-19T05:26:16;0.57;;;0.37;;
38023;SDS011;23834;48.080;11.682;2023-11-19T05:28:42;0.50;;;0.40;;
38023;SDS011;23834;48.080;11.682;2023-11-19T05:31:07;0.40;;;0.40;;
38023;SDS011;23834;48.080;11.682;2023-11-19T05:33:32;0.63;;;0.40;;
38023;SDS011;23834;48.080;11.682;2023-11-19T05:35:57;0.90;;;0.50;;
38023;SDS011;23834;48.080;11.682;2023-11-19T05:38:23;0.50;;;0.40;;
38023;SDS011;23834;48.080;11.682;2023-11-19T05:40:48;0.50;;;0.40;;
38023;SDS011;23834;48.080;11.682;2023-11-19T05:43:14;0.43;;;0.37;;
38023;SDS011;23834;48.080;11.682;2023-11-19T05:45:41;0.40;;;0.30;;
38023;SDS011;23834;48.080;11.682;2023-11-19T05:48:06;0.50;;;0.30;;
38023;SDS011;23834;48.080;11.682;2023-11-19T05:50:33;0.40;;;0.30;;
38023;SDS011;23834;48.080;11.682;2023-11-19T05:52:59;0.47;;;0.40;;
38023;SDS011;23834;48.080;11.682;2023-11-19T05:55:24;0.50;;;0.40;;
38023;SDS011;23834;48.080;11.682;2023-11-19T05:57:49;0.40;;;0.30;;
38023;SDS011;23834;48.080;11.682;2023-11-19T06:00:16;0.93;;;0.40;;
38023;SDS011;23834;48.080;11.682;2023-11-19T06:02:42;0.40;;;0.33;;
38023;SDS011;23834;48.080;11.682;2023-11-19T06:05:08;0.50;;;0.50;;
38023;SDS011;23834;48.080;11.682;2023-11-19T06:07:34;0.50;;;0.40;;
38023;SDS011;23834;48.080;11.682;2023-11-19T06:10:00;0.80;;;0.40;;
38023;SDS011;23834;48.080;11.682;2023-11-19T06:12:25;0.67;;;0.33;;
38023;SDS011;23834;48.080;11.682;2023-11-19T06:14:52;0.60;;;0.40;;
38023;SDS011;23834;48.080;11.682;2023-11-19T06:17:17;0.70;;;0.40;;
38023;SDS011;23834;48.080;11.682;2023-11-19T06:19:43;0.50;;;0.40;;
38023;SDS011;23834;48.080;11.682;2023-11-19T06:22:08;0.40;;;0.30;;
38023;SDS011;23834;48.080;11.682;2023-11-19T06:24:33;0.40;;;0.40;;
38023;SDS011;23834;48.080;11.682;2023-11-19T06:26:58;0.40;;;0.30;;
38023;SDS011;23834;48.080;11.682;2023-11-19T06:29:24;0.60;;;0.40;;
38023;SDS011;23834;48.080;11.682;2023-11-19T06:31:49;0.50;;;0.40;;
38023;SDS011;23834;48.080;11.682;2023-11-19T06:34:15;0.60;;;0.50;;
38023;SDS011;23834;48.080;11.682;2023-11-19T06:36:40;0.50;;;0.40;;
38023;SDS011;23834;48.080;11.682;2023-11-19T06:39:05;0.50;;;0.40;;
38023;SDS011;23834;48.080;11.682;2023-11-19T06:41:31;0.40;;;0.40;;
38023;SDS011;23834;48.080;11.682;2023-11-19T06:43:56;0.50;;;0.40;;
38023;SDS011;23834;48.080;11.682;2023-11-19T06:46:21;0.70;;;0.40;;
38023;SDS011;23834;48.080;11.682;2023-11-19T06:48:46;0.50;;;0.40;;
38023;SDS011;23834;48.080;11.682;2023-11-19T06:51:12;1.03;;;0.40;;
38023;SDS011;23834;48.080;11.682;2023-11-19T06:53:37;0.50;;;0.30;;
38023;SDS011;23834;48.080;11.682;2023-11-19T06:56:04;0.50;;;0.33;;
38023;SDS011;23834;48.080;11.682;2023-11-19T06:58:31;0.50;;;0.40;;
38023;SDS011;23834;48.080;11.682;2023-11-19T07:00:56;0.40;;;0.40;;
38023;SDS011;23834;48.080;11.682;2023-11-19T07:03:21;0.40;;;0.30;;
38023;SDS011;23834;48.080;11.682;2023-11-19T07:05:47;0.43;;;0.40;;
38023;SDS011;23834;48.080;11.682;2023-11-19T07:08:12;0.50;;;0.30;;
38023;SDS011;23834;48.080;11.682;2023-11-19T07:10:37;0.60;;;0.50;;
38023;SDS011;23834;48.080;11.682;2023-11-19T07:13:03;0.60;;;0.40;;
38023;SDS011;23834;48.080;11.682;2023-11-19T07:15:30;0.50;;;0.40;;
38023;SDS011;23834;48.080;11.682;2023-11-19T07:17:56;0.40;;;0.40;;
38023;SDS011;23834;48.080;11.682;2023-11-19T07:20:23;0.40;;;0.30;;
38023;SDS011;23834;48.080;11.682;2023-11-19T07:22:48;0.60;;;0.40;;
38023;SDS011;23834;48.080;11.682;2023-11-19T07:25:13;0.40;;;0.30;;
38023;SDS011;23834;48.080;11.682;2023-11-19T07:27:39;0.40;;;0.30;;
38023;SDS011;23834;48.080;11.682;2023-11-19T07:30:05;0.50;;;0.30;;
38023;SDS011;23834;48.080;11.682;2023-11-19T07:32:32;0.47;;;0.47;;
38023;SDS011;23834;48.080;11.682;2023-11-19T07:34:57;0.60;;;0.33;;
38023;SDS011;23834;48.080;11.682;2023-11-19T07:37:22;0.40;;;0.40;;
38023;SDS011;23834;48.080;11.682;2023-11-19T07:39:47;0.40;;;0.40;;
38023;SDS011;23834;48.080;11.682;2023-11-19T07:42:13;0.50;;;0.40;;
38023;SDS011;23834;48.080;11.682;2023-11-19T07:44:38;1.10;;;0.40;;
38023;SDS011;23834;48.080;11.682;2023-11-19T07:47:03;0.40;;;0.37;;
38023;SDS011;23834;48.080;11.682;2023-11-19T07:49:28;0.40;;;0.30;;
38023;SDS011;23834;48.080;11.682;2023-11-19T07:51:53;0.50;;;0.30;;
38023;SDS011;23834;48.080;11.682;2023-11-19T07:54:19;0.60;;;0.30;;
38023;SDS011;23834;48.080;11.682;2023-11-19T07:56:46;0.40;;;0.30;;
38023;SDS011;23834;48.080;11.682;2023-11-19T07:59:11;0.60;;;0.30;;
38023;SDS011;23834;48.080;11.682;2023-11-19T08:01:36;0.60;;;0.40;;
38023;SDS011;23834;48.080;11.682;2023-11-19T08:04:02;0.50;;;0.30;;
38023;SDS011;23834;48.080;11.682;2023-11-19T08:06:27;1.00;;;0.30;;
38023;SDS011;23834;48.080;11.682;2023-11-19T08:08:52;0.50;;;0.40;;
38023;SDS011;23834;48.080;11.682;2023-11-19T08:11:18;0.50;;;0.40;;
38023;SDS011;23834;48.080;11.682;2023-11-19T08:13:44;0.50;;;0.40;;
38023;SDS011;23834;48.080;11.682;2023-11-19T08:16:10;0.40;;;0.30;;
38023;SDS011;23834;48.080;11.682;2023-11-19T08:18:35;0.50;;;0.40;;
38023;SDS011;23834;48.080;11.682;2023-11-19T08:21:01;0.50;;;0.40;;
38023;SDS011;23834;48.080;11.682;2023-11-19T08:23:26;0.60;;;0.40;;
38023;SDS011;23834;48.080;11.682;2023-11-19T08:25:52;0.50;;;0.50;;
38023;SDS011;23834;48.080;11.682;2023-11-19T08:28:17;0.50;;;0.37;;
38023;SDS011;23834;48.080;11.682;2023-11-19T08:30:43;0.60;;;0.30;;
38023;SDS011;23834;48.080;11.682;2023-11-19T08:33:09;0.40;;;0.40;;
38023;SDS011;23834;48.080;11.682;2023-11-19T08:35:34;0.50;;;0.30;;
38023;SDS011;23834;48.080;11.682;2023-11-19T08:37:59;0.47;;;0.40;;
38023;SDS011;23834;48.080;11.682;2023-11-19T08:40:24;0.40;;;0.30;;
38023;SDS011;23834;48.080;11.682;2023-11-19T08:42:51;0.40;;;0.30;;
38023;SDS011;23834;48.080;11.682;2023-11-19T08:45:16;0.83;;;0.50;;
38023;SDS011;23834;48.080;11.682;2023-11-19T08:47:41;0.50;;;0.30;;
38023;SDS011;23834;48.080;11.682;2023-11-19T08:50:06;0.60;;;0.40;;
38023;SDS011;23834;48.080;11.682;2023-11-19T08:52:31;0.53;;;0.30;;
38023;SDS011;23834;48.080;11.682;2023-11-19T08:54:57;0.50;;;0.40;;
38023;SDS011;23834;48.080;11.682;2023-11-19T08:57:22;0.50;;;0.40;;
38023;SDS011;23834;48.080;11.682;2023-11-19T08:59:47;0.50;;;0.40;;
38023;SDS011;23834;48.080;11.682;2023-11-19T09:02:12;0.53;;;0.40;;
38023;SDS011;23834;48.080;11.682;2023-11-19T09:04:37;0.50;;;0.40;;
38023;SDS011;23834;48.080;11.682;2023-11-19T09:07:03;0.40;;;0.30;;
38023;SDS011;23834;48.080;11.682;2023-11-19T09:09:28;0.60;;;0.40;;
38023;SDS011;23834;48.080;11.682;2023-11-19T09:11:53;0.40;;;0.30;;
38023;SDS011;23834;48.080;11.682;2023-11-19T09:14:19;0.40;;;0.33;;
38023;SDS011;23834;48.080;11.682;2023-11-19T09:16:49;0.50;;;0.40;;
38023;SDS011;23834;48.080;11.682;2023-11-19T09:19:14;0.60;;;0.40;;
38023;SDS011;23834;48.080;11.682;2023-11-19T09:21:39;0.40;;;0.30;;
38023;SDS011;23834;48.080;11.682;2023-11-19T09:24:04;0.50;;;0.40;;
38023;SDS011;23834;48.080;11.682;2023-11-19T09:26:30;0.40;;;0.30;;
38023;SDS011;23834;48.080;11.682;2023-11-19T09:28:55;0.73;;;0.30;;
38023;SDS011;23834;48.080;11.682;2023-11-19T09:31:21;0.47;;;0.40;;
38023;SDS011;23834;48.080;11.682;2023-11-19T09:33:46;0.40;;;0.30;;
38023;SDS011;23834;48.080;11.682;2023-11-19T09:36:14;0.40;;;0.30;;
38023;SDS011;23834;48.080;11.682;2023-11-19T09:38:40;0.50;;;0.40;;
38023;SDS011;23834;48.080;11.682;2023-11-19T09:41:05;0.40;;;0.30;;
38023;SDS011;23834;48.080;11.682;2023-11-19T09:43:33;0.67;;;0.50;;
38023;SDS011;23834;48.080;11.682;2023-11-19T09:45:59;0.60;;;0.30;;
38023;SDS011;23834;48.080;11.682;2023-11-19T09:48:26;0.40;;;0.30;;
38023;SDS011;23834;48.080;11.682;2023-11-19T09:50:52;0.40;;;0.30;;
38023;SDS011;23834;48.080;11.682;2023-11-19T09:53:17;0.47;;;0.40;;
38023;SDS011;23834;48.080;11.682;2023-11-19T09:55:43;0.40;;;0.33;;
38023;SDS011;23834;48.080;11.682;2023-11-19T09:58:08;0.40;;;0.40;;
38023;SDS011;23834;48.080;11.682;2023-11-19T10:00:35;0.50;;;0.40;;
38023;SDS011;23834;48.080;11.682;2023-11-19T10:03:00;0.60;;;0.40;;
38023;SDS011;23834;48.080;11.682;2023-11-19T10:05:27;0.97;;;0.40;;
38023;SDS011;23834;48.080;11.682;2023-11-19T10:07:52;0.40;;;0.30;;
38023;SDS011;23834;48.080;11.682;2023-11-19T10:10:17;0.40;;;0.40;;
38023;SDS011;23834;48.080;11.682;2023-11-19T10:12:45;0.40;;;0.30;;
38023;SDS011;23834;48.080;11.682;2023-11-19T10:15:14;0.40;;;0.30;;
38023;SDS011;23834;48.080;11.682;2023-11-19T10:17:41;0.40;;;0.40;;
38023;SDS011;23834;48.080;11.682;2023-11-19T10:20:07;0.50;;;0.40;;
38023;SDS011;23834;48.080;11.682;2023-11-19T10:22:36;0.50;;;0.30;;
38023;SDS011;23834;48.080;11.682;2023-11-19T10:25:01;0.60;;;0.30;;
38023;SDS011;23834;48.080;11.682;2023-11-19T10:27:26;0.50;;;0.40;;
38023;SDS011;23834;48.080;11.682;2023-11-19T10:29:52;0.50;;;0.30;;
38023;SDS011;23834;48.080;11.682;2023-11-19T10:32:17;0.40;;;0.40;;
38023;SDS011;23834;48.080;11.682;2023-11-19T10:34:42;0.40;;;0.40;;
38023;SDS011;23834;48.080;11.682;2023-11-19T10:37:08;0.40;;;0.33;;
38023;SDS011;23834;48.080;11.682;2023-11-19T10:39:51;0.60;;;0.40;;
38023;SDS011;23834;48.080;11.682;2023-11-19T10:42:16;0.50;;;0.43;;
38023;SDS011;23834;48.080;11.682;2023-11-19T10:44:41;0.40;;;0.30;;
38023;SDS011;23834;48.080;11.682;2023-11-19T10:47:07;0.60;;;0.40;;
38023;SDS011;23834;48.080;11.682;2023-11-19T10:49:33;0.50;;;0.40;;
38023;SDS011;23834;48.080;11.682;2023-11-19T10:52:00;0.80;;;0.50;;
38023;SDS011;23834;48.080;11.682;2023-11-19T10:54:25;0.50;;;0.40;;
38023;SDS011;23834;48.080;11.682;2023-11-19T10:56:54;0.40;;;0.30;;
38023;SDS011;23834;48.080;11.682;2023-11-19T10:59:19;0.70;;;0.40;;
38023;SDS011;23834;48.080;11.682;2023-11-19T11:01:46;0.50;;;0.40;;
38023;SDS011;23834;48.080;11.682;2023-11-19T11:04:13;0.40;;;0.40;;
38023;SDS011;23834;48.080;11.682;2023-11-19T11:06:39;0.50;;;0.37;;
38023;SDS011;23834;48.080;11.682;2023-11-19T11:09:05;0.80;;;0.50;;
38023;SDS011;23834;48.080;11.682;2023-11-19T11:11:31;0.50;;;0.40;;
38023;SDS011;23834;48.080;11.682;2023-11-19T11:13:56;0.40;;;0.30;;
38023;SDS011;23834;48.080;11.682;2023-11-19T11:16:22;0.60;;;0.40;;
38023;SDS011;23834;48.080;11.682;2023-11-19T11:18:48;0.50;;;0.40;;
38023;SDS011;23834;48.080;11.682;2023-11-19T11:21:23;0.40;;;0.30;;
38023;SDS011;23834;48.080;11.682;2023-11-19T11:23:58;0.50;;;0.40;;
38023;SDS011;23834;48.080;11.682;2023-11-19T11:28:59;0.43;;;0.37;;
38023;SDS011;23834;48.080;11.682;2023-11-19T11:33:59;0.47;;;0.40;;
38023;SDS011;23834;48.080;11.682;2023-11-19T11:36:27;0.80;;;0.40;;
38023;SDS011;23834;48.080;11.682;2023-11-19T11:38:53;0.40;;;0.40;;
38023;SDS011;23834;48.080;11.682;2023-11-19T11:41:23;0.50;;;0.30;;
38023;SDS011;23834;48.080;11.682;2023-11-19T11:43:51;0.50;;;0.40;;
38023;SDS011;23834;48.080;11.682;2023-11-19T11:48:57;0.57;;;0.40;;
38023;SDS011;23834;48.080;11.682;2023-11-19T11:54:07;0.50;;;0.50;;
38023;SDS011;23834;48.080;11.682;2023-11-19T11:56:33;0.60;;;0.40;;
38023;SDS011;23834;48.080;11.682;2023-11-19T11:58:59;0.60;;;0.40;;
38023;SDS011;23834;48.080;11.682;2023-11-19T12:01:25;0.73;;;0.40;;
38023;SDS011;23834;48.080;11.682;2023-11-19T12:03:55;0.83;;;0.40;;
38023;SDS011;23834;48.080;11.682;2023-11-19T12:06:20;0.60;;;0.40;;
38023;SDS011;23834;48.080;11.682;2023-11-19T12:08:46;0.80;;;0.40;;
38023;SDS011;23834;48.080;11.682;2023-11-19T12:11:11;0.40;;;0.40;;
38023;SDS011;23834;48.080;11.682;2023-11-19T12:13:46;0.40;;;0.30;;
38023;SDS011;23834;48.080;11.682;2023-11-19T12:16:12;0.73;;;0.40;;
38023;SDS011;23834;48.080;11.682;2023-11-19T12:18:38;0.50;;;0.37;;
38023;SDS011;23834;48.080;11.682;2023-11-19T12:21:04;0.50;;;0.40;;
38023;SDS011;23834;48.080;11.682;2023-11-19T12:23:31;0.60;;;0.30;;
38023;SDS011;23834;48.080;11.682;2023-11-19T12:25:56;0.50;;;0.30;;
38023;SDS011;23834;48.080;11.682;2023-11-19T12:28:22;1.07;;;0.50;;
38023;SDS011;23834;48.080;11.682;2023-11-19T12:30:49;1.00;;;0.40;;
38023;SDS011;23834;48.080;11.682;2023-11-19T12:33:14;0.50;;;0.40;;
38023;SDS011;23834;48.080;11.682;2023-11-19T12:35:43;0.40;;;0.30;;
38023;SDS011;23834;48.080;11.682;2023-11-19T12:38:09;0.60;;;0.50;;
38023;SDS011;23834;48.080;11.682;2023-11-19T12:40:42;0.40;;;0.30;;
38023;SDS011;23834;48.080;11.682;2023-11-19T12:43:08;0.40;;;0.30;;
38023;SDS011;23834;48.080;11.682;2023-11-19T12:45:36;0.40;;;0.40;;
38023;SDS011;23834;48.080;11.682;2023-11-19T12:48:04;0.50;;;0.40;;
38023;SDS011;23834;48.080;11.682;2023-11-19T12:50:30;0.40;;;0.40;;
38023;SDS011;23834;48.080;11.682;2023-11-19T12:53:15;0.50;;;0.40;;
38023;SDS011;23834;48.080;11.682;2023-11-19T12:55:40;0.60;;;0.50;;
38023;SDS011;23834;48.080;11.682;2023-11-19T12:58:05;0.70;;;0.40;;
38023;SDS011;23834;48.080;11.682;2023-11-19T13:00:31;0.50;;;0.50;;
38023;SDS011;23834;48.080;11.682;2023-11-19T13:02:56;0.60;;;0.40;;
38023;SDS011;23834;48.080;11.682;2023-11-19T13:05:29;0.40;;;0.40;;
38023;SDS011;23834;48.080;11.682;2023-11-19T13:08:02;0.53;;;0.40;;
38023;SDS011;23834;48.080;11.682;2023-11-19T13:10:29;0.50;;;0.40;;
38023;SDS011;23834;48.080;11.682;2023-11-19T13:13:01;0.80;;;0.40;;
38023;SDS011;23834;48.080;11.682;2023-11-19T13:15:26;1.70;;;0.40;;
38023;SDS011;23834;48.080;11.682;2023-11-19T13:17:52;0.50;;;0.37;;
38023;SDS011;23834;48.080;11.682;2023-11-19T13:20:17;0.50;;;0.40;;
38023;SDS011;23834;48.080;11.682;2023-11-19T13:22:59;0.50;;;0.30;;
38023;SDS011;23834;48.080;11.682;2023-11-19T13:25:24;0.40;;;0.30;;
38023;SDS011;23834;48.080;11.682;2023-11-19T13:27:49;0.50;;;0.30;;
38023;SDS011;23834;48.080;11.682;2023-11-19T13:30:15;0.40;;;0.30;;
38023;SDS011;23834;48.080;11.682;2023-11-19T13:32:40;0.57;;;0.30;;
38023;SDS011;23834;48.080;11.682;2023-11-19T13:35:05;0.40;;;0.30;;
38023;SDS011;23834;48.080;11.682;2023-11-19T13:37:33;0.70;;;0.40;;
38023;SDS011;23834;48.080;11.682;2023-11-19T13:39:59;0.70;;;0.40;;
38023;SDS011;23834;48.080;11.682;2023-11-19T13:42:24;0.40;;;0.30;;
38023;SDS011;23834;48.080;11.682;2023-11-19T13:44:49;0.40;;;0.40;;
38023;SDS011;23834;48.080;11.682;2023-11-19T13:47:14;0.40;;;0.40;;
38023;SDS011;23834;48.080;11.682;2023-11-19T13:49:40;0.50;;;0.50;;
38023;SDS011;23834;48.080;11.682;2023-11-19T13:52:05;0.40;;;0.37;;
38023;SDS011;23834;48.080;11.682;2023-11-19T13:54:30;0.40;;;0.30;;
38023;SDS011;23834;48.080;11.682;2023-11-19T13:56:55;0.47;;;0.40;;
38023;SDS011;23834;48.080;11.682;2023-11-19T13:59:23;0.50;;;0.50;;
38023;SDS011;23834;48.080;11.682;2023-11-19T14:01:48;0.40;;;0.30;;
38023;SDS011;23834;48.080;11.682;2023-11-19T14:04:14;0.50;;;0.40;;
38023;SDS011;23834;48.080;11.682;2023-11-19T14:06:39;0.77;;;0.40;;
38023;SDS011;23834;48.080;11.682;2023-11-19T14:09:06;0.50;;;0.40;;
38023;SDS011;23834;48.080;11.682;2023-11-19T14:11:31;0.43;;;0.40;;
38023;SDS011;23834;48.080;11.682;2023-11-19T14:13:57;0.50;;;0.50;;
38023;SDS011;23834;48.080;11.682;2023-11-19T14:16:22;0.50;;;0.37;;
38023;SDS011;23834;48.080;11.682;2023-11-19T14:18:51;0.50;;;0.40;;
38023;SDS011;23834;48.080;11.682;2023-11-19T14:21:16;2.43;;;0.40;;
38023;SDS011;23834;48.080;11.682;2023-11-19T14:23:41;0.40;;;0.40;;
38023;SDS011;23834;48.080;11.682;2023-11-19T14:26:06;0.80;;;0.33;;
38023;SDS011;23834;48.080;11.682;2023-11-19T14:28:32;0.50;;;0.40;;
38023;SDS011;23834;48.080;11.682;2023-11-19T14:30:57;0.80;;;0.40;;
38023;SDS011;23834;48.080;11.682;2023-11-19T14:33:22;0.70;;;0.50;;
38023;SDS011;23834;48.080;11.682;2023-11-19T14:35:48;0.50;;;0.50;;
38023;SDS011;23834;48.080;11.682;2023-11-19T14:38:13;2.20;;;0.30;;